createdAt,value
2022-08-25T00:00:34.980Z,83.57
2022-08-25T00:03:01.810Z,83.84
2022-08-25T00:05:32.206Z,84.11
2022-08-25T00:08:08.969Z,83.22
2022-08-25T00:10:37.340Z,83.48
2022-08-25T00:13:12.776Z,83.24
2022-08-25T00:15:39.218Z,83.80
2022-08-25T00:18:05.863Z,83.35
2022-08-25T00:20:54.790Z,84.13
2022-08-25T00:23:28.753Z,84.79
2022-08-25T00:25:55.371Z,84.49
2022-08-25T00:28:28.763Z,84.67
2022-08-25T00:30:55.376Z,85.03
2022-08-25T00:33:21.932Z,85.39
2022-08-25T00:36:02.747Z,85.60
2022-08-25T00:38:29.412Z,85.84
2022-08-25T00:41:14.747Z,85.63
2022-08-25T00:43:48.747Z,85.39
2022-08-25T00:46:26.818Z,85.80
2022-08-25T00:49:05.779Z,86.24
2022-08-25T00:51:38.915Z,85.31
2022-08-25T00:54:14.976Z,86.12
2022-08-25T00:56:41.968Z,85.57
2022-08-25T00:59:08.682Z,86.36
2022-08-25T01:01:42.988Z,85.84
2022-08-25T01:04:16.732Z,85.31
2022-08-25T01:06:50.944Z,84.93
2022-08-25T01:09:19.903Z,85.65
2022-08-25T01:11:54.905Z,85.36
2022-08-25T01:14:30.760Z,86.03
2022-08-25T01:17:04.742Z,86.25
2022-08-25T01:19:33.538Z,86.18
2022-08-25T01:22:06.765Z,84.96
2022-08-25T01:24:52.921Z,85.18
2022-08-25T01:27:26.827Z,84.43
2022-08-25T01:29:53.974Z,85.14
2022-08-25T01:32:26.801Z,85.14
2022-08-25T01:35:00.944Z,85.53
2022-08-25T01:37:27.325Z,85.16
2022-08-25T01:39:54.525Z,85.97
2022-08-25T01:43:06.781Z,87.18
2022-08-25T01:45:35.062Z,87.27
2022-08-25T01:48:02.613Z,88.71
2022-08-25T01:50:36.772Z,88.19
2022-08-25T01:53:14.558Z,88.87
2022-08-25T01:56:00.761Z,88.81
2022-08-25T01:58:35.953Z,88.16
2022-08-25T02:01:12.963Z,88.46
2022-08-25T02:03:42.327Z,88.67
2022-08-25T02:06:18.798Z,88.19
2022-08-25T02:08:45.648Z,87.65
2022-08-25T02:11:22.739Z,87.45
2022-08-25T02:13:49.268Z,87.29
2022-08-25T02:16:26.828Z,88.13
2022-08-25T02:19:00.957Z,88.18
2022-08-25T02:21:28.373Z,88.38
2022-08-25T02:24:05.352Z,87.99
2022-08-25T02:26:31.962Z,86.87
2022-08-25T02:29:04.792Z,86.72
2022-08-25T02:31:31.499Z,86.36
2022-08-25T02:34:12.950Z,86.30
2022-08-25T02:36:39.506Z,86.28
2022-08-25T02:39:07.487Z,85.37
2022-08-25T02:41:40.730Z,85.34
2022-08-25T02:44:09.127Z,84.60
2022-08-25T02:46:42.737Z,84.26
2022-08-25T02:49:09.476Z,84.08
2022-08-25T02:51:42.737Z,84.19
2022-08-25T02:54:09.554Z,83.91
2022-08-25T02:56:36.393Z,83.52
2022-08-25T02:59:09.779Z,82.91
2022-08-25T03:01:36.339Z,82.61
2022-08-25T03:04:10.781Z,82.06
2022-08-25T03:06:37.285Z,81.27
2022-08-25T03:09:10.757Z,81.06
2022-08-25T03:11:38.435Z,80.69
2022-08-25T03:14:18.729Z,79.50
2022-08-25T03:16:46.518Z,78.37
2022-08-25T03:19:13.193Z,78.37
2022-08-25T03:21:46.775Z,77.50
2022-08-25T03:24:19.797Z,76.79
2022-08-25T03:26:55.967Z,75.82
2022-08-25T03:29:39.743Z,76.42
2022-08-25T03:32:06.613Z,75.65
2022-08-25T03:34:39.751Z,74.81
2022-08-25T03:37:08.522Z,74.70
2022-08-25T03:39:42.939Z,74.56
2022-08-25T03:42:09.495Z,74.12
2022-08-25T03:44:49.771Z,73.60
2022-08-25T03:47:16.164Z,73.64
2022-08-25T03:49:42.558Z,73.23
2022-08-25T03:52:16.869Z,73.18
2022-08-25T03:54:50.754Z,72.34
2022-08-25T03:57:23.753Z,74.03
2022-08-25T03:59:50.280Z,72.58
2022-08-25T04:02:16.791Z,74.17
2022-08-25T04:04:49.746Z,76.40
2022-08-25T04:07:26.822Z,77.45
2022-08-25T04:09:56.272Z,78.08
2022-08-25T04:12:30.765Z,77.94
2022-08-25T04:14:58.150Z,78.30
2022-08-25T04:17:30.792Z,78.54
2022-08-25T04:20:04.945Z,78.70
2022-08-25T04:22:31.803Z,78.65
2022-08-25T04:25:11.942Z,78.66
2022-08-25T04:27:38.327Z,78.35
2022-08-25T04:30:12.722Z,78.46
2022-08-25T04:32:52.752Z,77.86
2022-08-25T04:35:26.731Z,76.14
2022-08-25T04:37:53.207Z,74.72
2022-08-25T04:40:20.211Z,74.72
2022-08-25T04:43:01.741Z,74.46
2022-08-25T04:45:28.195Z,74.96
2022-08-25T04:47:56.822Z,73.35
2022-08-25T04:50:29.736Z,73.51
2022-08-25T04:53:02.727Z,72.89
2022-08-25T04:55:29.189Z,72.87
2022-08-25T04:58:01.801Z,72.03
2022-08-25T05:00:34.766Z,69.72
2022-08-25T05:03:08.927Z,68.21
2022-08-25T05:05:39.253Z,67.14
2022-08-25T05:08:12.779Z,66.67
2022-08-25T05:10:40.882Z,65.63
2022-08-25T05:13:08.837Z,63.37
2022-08-25T05:15:56.919Z,61.38
2022-08-25T05:18:28.850Z,60.78
2022-08-25T05:21:02.735Z,59.18
2022-08-25T05:23:29.228Z,58.43
2022-08-25T05:26:03.752Z,57.12
2022-08-25T05:28:30.251Z,55.18
2022-08-25T05:31:01.535Z,56.12
2022-08-25T05:33:35.860Z,54.91
2022-08-25T05:36:10.007Z,53.96
2022-08-25T05:38:43.739Z,57.13
2022-08-25T05:41:16.219Z,58.33
2022-08-25T05:43:50.712Z,57.46
2022-08-25T05:46:19.433Z,56.30
2022-08-25T05:48:52.717Z,54.02
2022-08-25T05:51:27.736Z,52.72
2022-08-25T05:53:54.450Z,52.99
2022-08-25T05:56:21.073Z,54.05
2022-08-25T05:58:54.932Z,54.45
2022-08-25T06:01:45.027Z,55.75
2022-08-25T06:04:19.777Z,54.90
2022-08-25T06:06:53.772Z,56.11
2022-08-25T06:09:27.746Z,57.18
2022-08-25T06:11:55.368Z,58.51
2022-08-25T06:14:23.329Z,58.34
2022-08-25T06:16:57.755Z,59.25
2022-08-25T06:19:24.225Z,59.15
2022-08-25T06:22:00.710Z,59.32
2022-08-25T06:24:29.099Z,59.41
2022-08-25T06:27:03.766Z,59.79
2022-08-25T06:29:30.222Z,59.81
2022-08-25T06:32:03.877Z,59.65
2022-08-25T06:34:33.827Z,59.71
2022-08-25T15:22:41.791Z,25.85
2022-08-25T15:25:08.814Z,26.49
2022-08-25T15:27:41.716Z,25.62
2022-08-25T15:30:15.756Z,25.28
2022-08-25T15:32:42.285Z,26.94
2022-08-25T15:35:15.721Z,26.85
2022-08-25T15:37:42.227Z,26.28
2022-08-25T15:40:15.986Z,26.04
2022-08-25T15:42:43.008Z,25.11
2022-08-25T15:45:19.925Z,26.34
2022-08-25T15:47:46.631Z,28.96
2022-08-25T15:50:29.942Z,29.89
2022-08-25T15:52:56.683Z,31.01
2022-08-25T15:55:29.729Z,32.17
2022-08-25T15:58:02.948Z,31.43
2022-08-25T16:00:38.097Z,29.91
2022-08-25T16:03:05.023Z,27.89
2022-08-25T16:05:53.784Z,29.00
2022-08-25T16:08:20.812Z,29.00
2022-08-25T16:10:47.659Z,31.01
2022-08-25T16:13:23.908Z,31.36
2022-08-25T16:15:56.975Z,32.89
2022-08-25T16:18:30.171Z,32.98
2022-08-25T16:24:07.707Z,33.50
2022-08-25T16:26:48.215Z,32.17
2022-08-25T16:29:15.726Z,32.08
2022-08-25T16:31:43.256Z,33.89
2022-08-25T16:34:17.845Z,35.35
2022-08-25T16:36:52.023Z,34.20
2022-08-25T16:39:27.755Z,34.94
2022-08-25T16:42:01.933Z,34.43
2022-08-25T16:44:34.785Z,34.79
2022-08-25T16:47:09.927Z,35.34
2022-08-25T16:49:52.712Z,36.41
2022-08-25T16:52:48.732Z,39.21
2022-08-25T16:55:16.373Z,40.54
2022-08-25T16:57:52.757Z,37.51
2022-08-25T17:00:25.386Z,37.94
2022-08-25T17:03:18.474Z,40.97
2022-08-25T17:05:45.254Z,43.09
2022-08-25T17:08:36.732Z,43.15
2022-08-25T17:11:07.222Z,41.09
2022-08-25T17:13:44.553Z,40.95
2022-08-25T17:16:12.952Z,39.82
2022-08-25T17:18:55.916Z,38.53
2022-08-25T17:21:26.683Z,38.62
2022-08-25T17:24:01.919Z,38.55
2022-08-25T17:26:31.420Z,38.06
2022-08-25T17:29:07.945Z,39.62
2022-08-25T17:31:39.616Z,40.75
2022-08-25T17:34:20.289Z,41.53
2022-08-25T17:36:47.799Z,42.64
2022-08-25T17:39:22.268Z,43.06
2022-08-25T17:41:49.818Z,44.01
2022-08-25T17:44:23.756Z,44.73
2022-08-25T17:46:51.558Z,45.76
2022-08-25T17:49:25.731Z,46.86
2022-08-25T17:51:52.183Z,47.13
2022-08-25T17:54:18.766Z,47.51
2022-08-25T17:56:51.703Z,47.99
2022-08-25T17:59:19.629Z,47.85
2022-08-25T18:01:55.513Z,49.20
2022-08-25T18:04:22.681Z,49.27
2022-08-25T18:06:55.769Z,49.57
2022-08-25T18:09:22.805Z,49.42
2022-08-25T18:11:52.416Z,49.82
2022-08-25T18:14:25.898Z,49.89
2022-08-25T18:16:54.058Z,49.97
2022-08-25T18:19:33.698Z,49.81
2022-08-25T18:22:04.214Z,50.96
2022-08-25T18:24:37.718Z,51.31
2022-08-25T18:27:04.407Z,51.49
2022-08-25T18:29:42.735Z,51.79
2022-08-25T18:32:09.668Z,52.48
2022-08-25T18:34:39.099Z,52.71
2022-08-25T18:37:33.728Z,53.61
2022-08-25T18:40:18.843Z,54.12
2022-08-25T18:42:51.917Z,53.86
2022-08-25T18:45:19.424Z,54.80
2022-08-25T18:47:53.792Z,55.00
2022-08-25T18:50:20.666Z,55.06
2022-08-25T18:52:55.163Z,55.51
2022-08-25T18:55:29.735Z,56.26
2022-08-25T18:57:57.655Z,56.87
2022-08-25T19:00:35.717Z,57.52
2022-08-25T19:03:08.977Z,58.26
2022-08-25T19:05:45.138Z,59.44
2022-08-25T19:08:23.915Z,59.75
2022-08-25T19:10:52.823Z,60.46
2022-08-25T19:13:25.733Z,61.04
2022-08-25T19:15:52.556Z,61.70
2022-08-25T19:18:33.855Z,61.93
2022-08-25T19:21:07.712Z,62.64
2022-08-25T19:23:45.906Z,63.42
2022-08-25T19:26:19.726Z,64.53
2022-08-25T19:28:55.763Z,64.83
2022-08-25T19:31:33.798Z,65.15
2022-08-25T19:34:07.928Z,66.54
2022-08-25T19:36:40.914Z,67.12
2022-08-25T19:39:10.111Z,67.72
2022-08-25T19:41:43.711Z,68.00
2022-08-25T19:44:12.157Z,68.47
2022-08-25T19:46:47.719Z,69.52
2022-08-25T19:49:31.517Z,69.63
2022-08-25T19:51:58.358Z,69.64
2022-08-25T19:54:39.698Z,69.72
2022-08-25T19:57:27.886Z,69.71
2022-08-25T20:00:03.706Z,69.79
2022-08-25T20:02:31.849Z,69.88
2022-08-25T20:05:07.730Z,70.21
2022-08-25T20:07:35.127Z,69.60
2022-08-25T20:10:02.335Z,70.22
2022-08-25T20:12:35.825Z,70.55
2022-08-25T20:15:04.014Z,70.66
2022-08-25T20:17:37.928Z,70.99
2022-08-25T20:20:21.159Z,71.00
2022-08-25T20:22:55.685Z,72.05
2022-08-25T20:25:25.325Z,72.35
2022-08-25T20:28:01.943Z,73.32
2022-08-25T20:30:30.158Z,73.83
2022-08-25T20:33:03.961Z,74.05
2022-08-25T20:35:34.952Z,74.75
2022-08-25T20:38:10.782Z,75.23
2022-08-25T20:40:40.667Z,75.28
2022-08-25T20:43:13.858Z,75.96
2022-08-25T20:45:47.821Z,76.64
2022-08-25T20:48:20.707Z,77.07
2022-08-25T20:50:54.396Z,76.93
2022-08-25T20:53:30.710Z,77.24
2022-08-25T20:56:03.943Z,77.28
2022-08-25T20:58:30.608Z,77.98
2022-08-25T21:00:56.987Z,77.94
2022-08-25T21:03:29.772Z,78.21
2022-08-25T21:05:56.556Z,78.20
2022-08-25T21:08:23.782Z,78.38
2022-08-25T21:10:59.746Z,78.22
2022-08-25T21:13:26.230Z,78.65
2022-08-25T21:16:08.927Z,78.97
2022-08-25T21:18:36.472Z,78.77
2022-08-25T21:21:17.835Z,78.90
2022-08-25T21:23:54.716Z,79.31
2022-08-25T21:26:26.204Z,79.54
2022-08-25T21:28:59.751Z,79.62
2022-08-25T21:31:27.925Z,79.72
2022-08-25T21:34:03.705Z,80.12
2022-08-25T21:36:31.348Z,80.27
2022-08-25T21:38:59.968Z,80.25
2022-08-25T21:41:37.752Z,80.87
2022-08-25T21:44:10.699Z,80.86
2022-08-25T21:46:38.301Z,80.98
2022-08-25T21:49:14.916Z,81.10
2022-08-25T21:52:00.336Z,81.18
2022-08-25T21:54:28.667Z,81.33
2022-08-25T21:57:05.692Z,81.72
2022-08-25T21:59:34.930Z,81.62
2022-08-25T22:02:11.970Z,81.87
2022-08-25T22:04:39.559Z,81.39
2022-08-25T22:07:07.939Z,81.60
2022-08-25T22:09:41.703Z,81.97
2022-08-25T22:12:09.237Z,82.11
2022-08-25T22:14:43.732Z,82.45
2022-08-25T22:17:16.487Z,82.28
2022-08-25T22:19:43.757Z,82.22
2022-08-25T22:22:20.856Z,82.57
2022-08-25T22:24:47.538Z,82.54
2022-08-25T22:27:20.721Z,82.70
2022-08-25T22:29:57.945Z,82.96
2022-08-25T22:32:30.695Z,83.03
2022-08-25T22:34:57.160Z,83.11
2022-08-25T22:37:30.418Z,83.05
2022-08-25T22:39:57.047Z,82.75
2022-08-25T22:42:31.704Z,82.52
2022-08-25T22:44:58.359Z,82.87
2022-08-25T22:47:31.729Z,83.09
2022-08-25T22:50:05.752Z,83.19
2022-08-25T22:52:34.685Z,83.09
2022-08-25T22:55:02.878Z,83.41
2022-08-25T22:57:35.828Z,83.39
2022-08-25T23:00:03.048Z,83.40
2022-08-25T23:02:37.728Z,83.76
2022-08-25T23:05:05.167Z,83.68
2022-08-25T23:07:35.743Z,83.77
2022-08-25T23:10:11.892Z,83.26
2022-08-25T23:12:40.383Z,83.12
2022-08-25T23:15:17.677Z,82.92
2022-08-25T23:17:58.702Z,83.16
2022-08-25T23:20:51.752Z,82.86
2022-08-25T23:23:18.272Z,83.16
2022-08-25T23:25:51.700Z,83.42
2022-08-25T23:28:18.504Z,83.28
2022-08-25T23:30:51.815Z,83.09
2022-08-25T23:33:26.895Z,82.94
2022-08-25T23:36:07.871Z,82.80
2022-08-25T23:38:41.895Z,82.64
2022-08-25T23:41:20.104Z,82.56
2022-08-25T23:43:55.683Z,82.37
2022-08-25T23:46:24.277Z,82.46
2022-08-25T23:49:01.692Z,82.54
2022-08-25T23:51:30.745Z,82.51
2022-08-25T23:53:59.256Z,82.32
2022-08-25T23:56:32.887Z,82.32
2022-08-25T23:58:59.648Z,82.64
